Time;durP1;ratioP1;P1;durP2;ratioP2;P2;SDS_P1;SDS_P2;PMS_P1;PMS_P2;Temp;Humidity;BMP_temperature;BMP_pressure;BME280_temperature;BME280_humidity;BME280_pressure;Samples;Min_cycle;Max_cycle;Signal;HPM_P1;HPM_P2
2023/05/27 00:01:12;;;;;;;4.90;1.80;;;10.50;99.90;;;;;;5011566;28;20045;-81
2023/05/27 00:03:40;;;;;;;4.47;1.40;;;10.50;99.90;;;;;;5014789;28;20056;-80
2023/05/27 00:06:07;;;;;;;5.03;1.92;;;10.40;99.90;;;;;;5026808;28;20060;-82
2023/05/27 00:08:34;;;;;;;3.85;1.50;;;10.40;99.90;;;;;;5027273;28;20094;-81
2023/05/27 00:11:01;;;;;;;3.05;1.25;;;10.40;99.90;;;;;;5008717;28;20481;-80
2023/05/27 00:13:28;;;;;;;3.22;1.50;;;10.40;99.90;;;;;;5007532;28;20469;-81
2023/05/27 00:15:55;;;;;;;4.65;1.55;;;10.40;99.90;;;;;;5028009;28;20375;-82
2023/05/27 00:18:22;;;;;;;4.53;1.90;;;10.40;99.90;;;;;;5025162;28;20128;-81
2023/05/27 00:20:49;;;;;;;4.13;1.50;;;10.40;99.90;;;;;;5025425;28;20056;-81
2023/05/27 00:23:16;;;;;;;3.63;1.65;;;10.40;99.90;;;;;;5026415;28;20153;-81
2023/05/27 00:25:43;;;;;;;4.68;2.08;;;10.30;99.90;;;;;;5042306;28;20837;-81
2023/05/27 00:28:10;;;;;;;2.50;1.50;;;10.30;99.90;;;;;;5025508;28;20117;-82
2023/05/27 00:30:37;;;;;;;4.70;1.70;;;10.30;99.90;;;;;;5041997;28;20139;-81
2023/05/27 00:33:04;;;;;;;3.25;1.48;;;10.30;99.90;;;;;;5022734;28;20048;-81
2023/05/27 00:35:31;;;;;;;4.32;2.08;;;10.20;99.90;;;;;;5020960;28;20049;-81
2023/05/27 00:37:57;;;;;;;4.35;1.45;;;10.30;99.90;;;;;;5038083;28;20426;-81
2023/05/27 00:40:25;;;;;;;3.00;1.15;;;10.20;99.90;;;;;;5038683;28;20626;-80
2023/05/27 00:42:52;;;;;;;4.15;1.35;;;10.30;99.90;;;;;;5038227;28;20069;-81
2023/05/27 00:45:19;;;;;;;2.70;1.48;;;10.10;99.90;;;;;;5054019;28;20068;-81
2023/05/27 00:47:46;;;;;;;2.92;1.27;;;10.10;99.90;;;;;;5025064;28;20067;-81
2023/05/27 00:50:13;;;;;;;3.53;1.50;;;10.10;99.90;;;;;;5023802;28;20044;-81
2023/05/27 00:52:40;;;;;;;4.28;1.30;;;10.10;99.90;;;;;;5041488;28;20130;-81
2023/05/27 00:55:08;;;;;;;3.20;1.30;;;10.10;99.90;;;;;;5021525;28;20053;-82
2023/05/27 00:57:34;;;;;;;2.83;1.42;;;10.10;99.90;;;;;;5006369;28;20096;-82
2023/05/27 01:00:06;;;;;;;3.42;1.45;;;10.10;99.90;;;;;;5021727;28;20056;-81
2023/05/27 01:02:33;;;;;;;3.58;1.33;;;10.10;99.90;;;;;;5022377;28;20564;-81
2023/05/27 01:05:01;;;;;;;5.63;1.73;;;10.10;99.90;;;;;;5013166;28;20052;-81
2023/05/27 01:07:37;;;;;;;3.85;1.60;;;10.10;99.90;;;;;;5005457;28;20142;-82
2023/05/27 01:10:23;;;;;;;4.43;1.85;;;10.00;99.90;;;;;;5037415;28;20052;-81
2023/05/27 01:13:00;;;;;;;3.03;1.27;;;9.90;99.90;;;;;;5008045;28;20709;-81
2023/05/27 01:15:28;;;;;;;4.60;1.55;;;9.90;99.90;;;;;;5038350;28;20048;-81
2023/05/27 01:17:56;;;;;;;5.72;1.65;;;9.80;99.90;;;;;;5023847;28;20057;-82
2023/05/27 01:20:24;;;;;;;4.30;1.50;;;9.80;99.90;;;;;;5024746;28;20567;-81
2023/05/27 01:22:53;;;;;;;3.00;1.25;;;9.70;99.90;;;;;;5025835;28;20114;-81
2023/05/27 01:25:21;;;;;;;3.80;1.35;;;9.70;99.90;;;;;;5041076;28;20094;-81
2023/05/27 01:27:47;;;;;;;2.60;1.40;;;9.70;99.90;;;;;;5027802;28;20080;-81
2023/05/27 01:30:14;;;;;;;3.90;1.75;;;9.70;99.90;;;;;;5027302;28;20513;-81
2023/05/27 01:32:42;;;;;;;3.47;1.40;;;9.60;99.90;;;;;;5046181;28;20124;-80
2023/05/27 01:35:12;;;;;;;2.38;1.13;;;9.60;99.90;;;;;;5056291;28;20123;-81
2023/05/27 01:37:41;;;;;;;3.38;1.30;;;9.60;99.90;;;;;;5065263;28;20055;-81
2023/05/27 01:40:08;;;;;;;3.58;1.45;;;9.60;99.90;;;;;;5021533;28;20056;-81
2023/05/27 01:42:35;;;;;;;2.97;1.20;;;9.50;99.90;;;;;;5012637;28;20159;-81
2023/05/27 01:45:04;;;;;;;3.08;1.40;;;9.50;99.90;;;;;;5027101;28;20055;-80
2023/05/27 01:47:31;;;;;;;5.35;1.40;;;9.50;99.90;;;;;;5028842;28;20079;-81
2023/05/27 01:49:58;;;;;;;4.47;1.95;;;9.50;99.90;;;;;;5027040;28;20052;-80
2023/05/27 01:52:25;;;;;;;4.35;1.50;;;9.40;99.90;;;;;;5028585;28;20114;-80
2023/05/27 01:54:52;;;;;;;4.38;2.05;;;9.40;99.90;;;;;;5028106;28;20060;-80
2023/05/27 01:57:19;;;;;;;4.03;1.73;;;9.40;99.90;;;;;;5048722;28;20063;-81
2023/05/27 01:59:46;;;;;;;6.20;1.50;;;9.40;99.90;;;;;;5032130;28;20044;-81
2023/05/27 02:02:13;;;;;;;4.15;1.77;;;9.40;99.90;;;;;;5048246;28;20129;-80
2023/05/27 02:04:40;;;;;;;5.60;1.88;;;9.50;99.90;;;;;;5026619;28;20055;-81
2023/05/27 02:07:06;;;;;;;5.30;2.03;;;9.50;99.90;;;;;;5028292;28;20053;-81
2023/05/27 02:09:33;;;;;;;4.00;1.58;;;9.50;99.90;;;;;;5028467;28;20052;-80
2023/05/27 02:12:00;;;;;;;3.75;1.65;;;9.50;99.90;;;;;;5044665;28;20075;-81
2023/05/27 02:14:27;;;;;;;3.92;1.45;;;9.50;99.90;;;;;;5027731;28;20049;-80
2023/05/27 02:16:54;;;;;;;2.38;1.10;;;9.40;99.90;;;;;;5027847;28;20063;-81
2023/05/27 02:19:22;;;;;;;4.45;1.92;;;9.40;99.90;;;;;;5042829;28;20147;-81
2023/05/27 02:21:48;;;;;;;4.70;1.95;;;9.50;99.90;;;;;;5027770;28;20072;-81
2023/05/27 02:24:15;;;;;;;3.80;1.48;;;9.40;99.90;;;;;;5027164;28;20420;-81
2023/05/27 02:26:42;;;;;;;4.68;1.67;;;9.50;99.90;;;;;;5028737;28;20083;-81
2023/05/27 02:29:09;;;;;;;2.95;1.20;;;9.40;99.90;;;;;;5027882;28;20633;-81
2023/05/27 02:31:36;;;;;;;3.33;1.42;;;9.50;99.90;;;;;;5031880;28;20044;-81
2023/05/27 02:34:03;;;;;;;3.88;1.63;;;9.40;99.90;;;;;;5028728;28;20071;-81
2023/05/27 02:36:30;;;;;;;4.20;2.22;;;9.40;99.90;;;;;;5048178;28;20049;-81
2023/05/27 02:38:56;;;;;;;3.38;1.27;;;9.40;99.90;;;;;;5030819;28;20076;-81
2023/05/27 02:41:23;;;;;;;5.65;1.65;;;9.40;99.90;;;;;;5031265;28;20598;-81
2023/05/27 02:43:50;;;;;;;4.32;1.63;;;9.40;99.90;;;;;;5028984;28;20049;-81
2023/05/27 02:46:17;;;;;;;2.30;1.02;;;9.30;99.90;;;;;;5046552;28;20056;-82
2023/05/27 02:48:45;;;;;;;2.50;1.00;;;9.30;99.90;;;;;;5026222;28;20048;-81
2023/05/27 02:51:12;;;;;;;1.45;0.90;;;9.30;99.90;;;;;;5027879;28;20076;-80
2023/05/27 02:53:39;;;;;;;1.83;0.93;;;9.20;99.90;;;;;;5029141;28;20408;-81
2023/05/27 02:56:06;;;;;;;2.70;1.10;;;9.20;99.90;;;;;;5031365;28;20079;-81
2023/05/27 02:58:33;;;;;;;5.88;2.08;;;9.20;99.90;;;;;;5030500;28;20118;-81
2023/05/27 03:01:00;;;;;;;4.05;1.90;;;9.20;99.90;;;;;;5031088;28;20059;-81
2023/05/27 03:03:27;;;;;;;3.70;1.45;;;9.20;99.90;;;;;;5029421;28;20082;-81
2023/05/27 03:05:54;;;;;;;3.25;1.40;;;9.20;99.90;;;;;;5062561;28;20507;-81
2023/05/27 03:08:21;;;;;;;3.38;1.27;;;9.10;99.90;;;;;;5030763;28;20049;-81
2023/05/27 03:10:47;;;;;;;4.35;1.27;;;9.10;99.90;;;;;;5030270;28;20045;-81
2023/05/27 03:13:14;;;;;;;3.28;1.30;;;9.20;99.90;;;;;;5029965;28;20411;-80
2023/05/27 03:15:41;;;;;;;3.10;1.40;;;9.20;99.90;;;;;;5026849;28;20057;-80
2023/05/27 03:18:08;;;;;;;3.17;1.10;;;9.10;99.90;;;;;;5041907;28;20053;-81
2023/05/27 03:20:35;;;;;;;4.70;1.30;;;9.10;99.90;;;;;;5042590;28;20052;-81
2023/05/27 03:23:02;;;;;;;2.92;1.48;;;9.00;99.90;;;;;;5051523;28;20159;-80
2023/05/27 03:25:29;;;;;;;3.50;1.35;;;9.00;99.90;;;;;;5021948;28;20044;-81
2023/05/27 03:27:56;;;;;;;3.15;1.30;;;9.00;99.90;;;;;;5018531;28;20064;-80
2023/05/27 03:30:23;;;;;;;1.73;1.00;;;9.00;99.90;;;;;;5021850;28;20106;-80
2023/05/27 03:32:50;;;;;;;3.78;1.20;;;9.00;99.90;;;;;;5021451;28;20072;-80
2023/05/27 03:35:17;;;;;;;2.17;1.45;;;9.00;99.90;;;;;;5014178;28;20108;-80
2023/05/27 03:37:45;;;;;;;2.80;1.23;;;9.00;99.90;;;;;;5040252;28;20061;-80
2023/05/27 03:40:12;;;;;;;2.05;1.10;;;9.00;99.90;;;;;;5026402;28;20049;-80
2023/05/27 03:42:39;;;;;;;6.40;1.52;;;8.90;99.90;;;;;;5022193;28;20056;-80
2023/05/27 03:45:07;;;;;;;3.70;2.03;;;8.90;99.90;;;;;;5021214;28;20546;-81
2023/05/27 03:47:35;;;;;;;3.53;1.58;;;8.90;99.90;;;;;;5024122;28;20083;-80
2023/05/27 03:50:03;;;;;;;3.22;1.40;;;8.90;99.90;;;;;;5037222;28;20040;-81
2023/05/27 03:52:30;;;;;;;3.13;1.23;;;8.90;99.90;;;;;;5022203;28;20041;-81
2023/05/27 03:54:56;;;;;;;4.13;1.17;;;9.00;99.90;;;;;;5025509;28;20040;-81
2023/05/27 03:57:23;;;;;;;5.82;1.70;;;9.00;99.90;;;;;;5024169;28;20052;-81
2023/05/27 03:59:50;;;;;;;3.17;1.48;;;9.00;99.90;;;;;;5022554;28;20048;-81
2023/05/27 04:02:17;;;;;;;2.72;1.15;;;9.10;99.90;;;;;;5021214;28;20102;-81
2023/05/27 04:04:44;;;;;;;3.00;1.20;;;9.10;99.90;;;;;;5016423;28;20056;-81
2023/05/27 04:07:12;;;;;;;2.90;1.02;;;9.10;99.90;;;;;;5043136;28;20494;-80
2023/05/27 04:09:39;;;;;;;2.25;1.17;;;9.10;99.90;;;;;;5010949;28;20041;-81
2023/05/27 04:12:07;;;;;;;2.97;1.17;;;9.10;99.90;;;;;;5024933;28;20048;-81
2023/05/27 04:14:34;;;;;;;2.97;1.20;;;9.10;99.90;;;;;;5035065;28;20052;-81
2023/05/27 04:17:01;;;;;;;2.72;1.23;;;9.10;99.90;;;;;;5060028;28;20053;-80
2023/05/27 04:19:28;;;;;;;3.05;1.30;;;9.10;99.90;;;;;;5026160;28;20525;-80
2023/05/27 04:21:55;;;;;;;2.78;1.27;;;9.10;99.90;;;;;;5029361;28;20044;-81
2023/05/27 04:24:22;;;;;;;2.38;1.20;;;9.00;99.90;;;;;;5056511;28;20468;-81
2023/05/27 04:26:48;;;;;;;2.80;1.40;;;9.00;99.90;;;;;;5025284;28;20394;-80
2023/05/27 04:29:15;;;;;;;3.72;1.45;;;9.00;99.90;;;;;;5038173;28;20083;-81
2023/05/27 04:31:42;;;;;;;3.15;1.33;;;8.90;99.90;;;;;;5027132;28;20496;-81
2023/05/27 04:34:09;;;;;;;3.88;1.35;;;8.90;99.90;;;;;;5021942;28;20072;-81
2023/05/27 04:36:37;;;;;;;2.42;1.45;;;8.90;99.90;;;;;;5023218;28;20041;-81
2023/05/27 04:39:04;;;;;;;3.60;1.23;;;9.00;99.90;;;;;;5041213;28;20587;-80
2023/05/27 04:41:32;;;;;;;2.35;1.35;;;9.10;99.90;;;;;;5042858;28;20068;-81
2023/05/27 04:44:02;;;;;;;2.97;1.50;;;9.10;99.90;;;;;;5042477;28;20052;-80
2023/05/27 04:46:29;;;;;;;3.10;1.13;;;9.20;99.90;;;;;;5021086;28;20049;-80
2023/05/27 04:48:56;;;;;;;3.22;1.33;;;9.30;99.90;;;;;;5024080;28;20080;-81
2023/05/27 04:51:22;;;;;;;2.20;1.35;;;9.30;99.90;;;;;;5012960;28;20110;-81
2023/05/27 04:53:50;;;;;;;3.13;1.52;;;9.40;99.90;;;;;;5012972;28;20289;-81
2023/05/27 04:56:17;;;;;;;4.35;1.48;;;9.50;99.90;;;;;;5064281;28;20158;-81
2023/05/27 04:58:46;;;;;;;3.35;1.40;;;9.70;99.90;;;;;;5063315;28;20052;-82
2023/05/27 05:01:20;;;;;;;4.72;1.90;;;9.80;99.90;;;;;;5016063;28;20125;-80
2023/05/27 05:03:52;;;;;;;3.35;1.52;;;9.80;99.90;;;;;;5027967;28;20052;-81
2023/05/27 05:06:20;;;;;;;5.93;2.08;;;9.90;99.90;;;;;;5043442;28;20455;-81
2023/05/27 05:08:48;;;;;;;5.10;1.42;;;9.90;99.90;;;;;;5024534;28;21247;-81
2023/05/27 05:11:15;;;;;;;3.42;2.05;;;10.00;99.90;;;;;;5025232;28;20098;-81
2023/05/27 05:13:42;;;;;;;3.03;1.70;;;10.10;99.90;;;;;;5037193;28;20070;-81
2023/05/27 05:16:09;;;;;;;4.38;2.08;;;10.20;99.90;;;;;;5048777;28;20072;-82
2023/05/27 05:18:36;;;;;;;5.00;1.75;;;10.20;99.90;;;;;;5024314;28;20093;-80
2023/05/27 05:21:03;;;;;;;3.85;1.42;;;10.30;99.90;;;;;;5041371;28;20138;-80
2023/05/27 05:23:31;;;;;;;3.13;1.67;;;10.40;99.90;;;;;;5038140;28;20110;-81
2023/05/27 05:26:05;;;;;;;2.80;1.48;;;10.60;99.90;;;;;;5051186;28;20040;-83
2023/05/27 05:28:34;;;;;;;3.90;1.80;;;10.70;99.90;;;;;;5021733;28;20098;-81
2023/05/27 05:31:01;;;;;;;3.58;2.00;;;10.70;99.90;;;;;;5033377;28;20048;-81
2023/05/27 05:33:28;;;;;;;6.18;2.13;;;10.80;99.90;;;;;;5030009;28;20053;-81
2023/05/27 05:35:55;;;;;;;6.05;2.33;;;10.80;99.90;;;;;;5018790;28;20090;-81
2023/05/27 05:38:23;;;;;;;6.13;2.05;;;10.80;99.90;;;;;;5032394;28;20102;-81
2023/05/27 05:40:52;;;;;;;5.70;2.35;;;10.90;99.90;;;;;;5058066;28;20569;-82
2023/05/27 05:43:20;;;;;;;5.30;2.80;;;11.00;99.90;;;;;;5015252;28;20140;-81
2023/05/27 05:45:46;;;;;;;5.88;2.28;;;11.00;99.90;;;;;;5019208;28;20044;-81
2023/05/27 05:48:13;;;;;;;4.78;2.25;;;11.10;99.90;;;;;;5013765;28;20602;-81
2023/05/27 05:50:40;;;;;;;4.38;2.15;;;11.20;99.90;;;;;;5042505;28;20140;-81
2023/05/27 05:53:09;;;;;;;5.03;2.22;;;11.30;99.90;;;;;;5015115;28;20071;-81
2023/05/27 05:55:37;;;;;;;5.72;2.13;;;11.30;99.90;;;;;;5018708;28;20060;-81
2023/05/27 05:58:03;;;;;;;5.72;2.00;;;11.40;99.90;;;;;;5030838;28;20146;-81
2023/05/27 06:00:30;;;;;;;5.55;1.98;;;11.40;99.90;;;;;;5016635;28;20492;-82
2023/05/27 06:02:58;;;;;;;3.25;1.60;;;11.50;99.90;;;;;;5013120;28;20049;-81
2023/05/27 06:05:25;;;;;;;3.35;1.83;;;11.60;99.90;;;;;;5057097;28;20631;-81
2023/05/27 06:07:53;;;;;;;4.07;1.75;;;11.70;99.90;;;;;;5037210;28;20044;-82
2023/05/27 06:10:21;;;;;;;3.92;1.60;;;11.70;99.90;;;;;;5035342;28;20055;-82
2023/05/27 06:12:48;;;;;;;5.15;1.75;;;11.90;99.90;;;;;;5046789;28;20126;-82
2023/05/27 06:15:15;;;;;;;3.47;1.92;;;12.00;99.90;;;;;;5019891;28;20574;-82
2023/05/27 06:17:44;;;;;;;4.03;1.65;;;12.10;99.90;;;;;;5015624;28;20051;-82
2023/05/27 06:20:11;;;;;;;4.13;1.88;;;12.20;99.90;;;;;;5035588;28;20656;-82
2023/05/27 06:22:38;;;;;;;3.95;2.00;;;12.30;99.90;;;;;;5040853;28;20045;-82
2023/05/27 06:25:06;;;;;;;4.05;2.25;;;12.40;99.90;;;;;;5032542;28;20118;-81
2023/05/27 06:27:33;;;;;;;4.40;2.30;;;12.50;99.90;;;;;;5030814;28;20049;-81
2023/05/27 06:29:59;;;;;;;3.55;1.55;;;12.60;99.90;;;;;;5047249;28;20056;-81
2023/05/27 06:32:26;;;;;;;3.35;1.60;;;12.70;99.90;;;;;;5010826;28;20063;-81
2023/05/27 06:34:53;;;;;;;4.32;1.98;;;12.80;99.90;;;;;;5043676;28;20056;-82
2023/05/27 06:37:20;;;;;;;4.68;2.53;;;12.90;99.90;;;;;;5048162;28;20079;-82
2023/05/27 06:39:47;;;;;;;4.97;2.80;;;12.90;99.90;;;;;;5031090;28;20405;-82
2023/05/27 06:42:15;;;;;;;4.82;2.53;;;13.00;99.90;;;;;;5030064;28;20508;-82
2023/05/27 06:44:42;;;;;;;3.65;2.30;;;13.10;99.90;;;;;;5052483;28;20052;-83
2023/05/27 06:47:10;;;;;;;3.15;2.13;;;13.20;99.90;;;;;;5055421;28;20136;-83
2023/05/27 06:49:38;;;;;;;4.65;2.15;;;13.30;99.90;;;;;;5058044;28;20055;-82
2023/05/27 06:52:05;;;;;;;4.97;2.00;;;13.30;99.90;;;;;;5040170;28;20053;-83
2023/05/27 06:54:36;;;;;;;5.53;2.58;;;13.40;99.90;;;;;;5053386;28;20107;-83
2023/05/27 06:57:03;;;;;;;3.50;1.85;;;13.40;99.90;;;;;;5042331;28;20505;-83
2023/05/27 06:59:30;;;;;;;3.28;1.80;;;13.60;99.90;;;;;;5037055;28;20136;-83
2023/05/27 07:01:58;;;;;;;3.70;1.92;;;13.70;99.90;;;;;;5045124;28;20053;-82
2023/05/27 07:04:25;;;;;;;3.83;2.03;;;13.70;99.90;;;;;;5046741;28;20052;-83
2023/05/27 07:06:52;;;;;;;3.03;1.80;;;13.80;99.90;;;;;;5018556;28;20041;-83
2023/05/27 07:09:19;;;;;;;3.50;2.00;;;13.70;99.90;;;;;;5020195;28;20049;-83
2023/05/27 07:11:47;;;;;;;3.75;2.13;;;13.70;99.90;;;;;;5039193;28;20102;-83
2023/05/27 07:14:14;;;;;;;6.82;2.30;;;13.70;99.90;;;;;;5058060;28;20060;-82
2023/05/27 07:16:42;;;;;;;6.55;2.33;;;13.70;99.90;;;;;;5043313;28;20083;-81
2023/05/27 07:19:09;;;;;;;4.20;1.92;;;13.70;99.90;;;;;;5059750;28;20758;-82
2023/05/27 07:21:36;;;;;;;3.70;1.92;;;13.90;99.90;;;;;;5044509;28;20534;-83
2023/05/27 07:24:03;;;;;;;4.95;2.10;;;14.00;99.90;;;;;;5045833;28;20391;-83
2023/05/27 07:26:31;;;;;;;5.40;2.10;;;14.10;99.90;;;;;;5042383;28;20066;-83
2023/05/27 07:28:58;;;;;;;5.65;1.85;;;14.20;99.90;;;;;;5030149;28;20095;-83
2023/05/27 07:31:25;;;;;;;4.47;2.10;;;14.20;99.90;;;;;;5053928;28;20087;-81
2023/05/27 07:33:52;;;;;;;2.67;1.90;;;14.30;99.90;;;;;;5051374;28;20468;-81
2023/05/27 07:36:19;;;;;;;4.05;2.10;;;14.40;99.90;;;;;;5046971;28;20490;-80
2023/05/27 07:38:46;;;;;;;4.05;2.10;;;14.40;99.90;;;;;;5051736;28;20071;-81
2023/05/27 07:41:13;;;;;;;4.22;2.00;;;14.40;99.90;;;;;;5055022;28;20178;-81
2023/05/27 07:43:40;;;;;;;5.82;2.60;;;14.40;99.90;;;;;;5029450;28;20101;-76
2023/05/27 07:46:07;;;;;;;5.25;2.60;;;14.50;99.90;;;;;;5034968;28;20050;-78
2023/05/27 07:48:34;;;;;;;3.70;2.60;;;14.60;99.90;;;;;;5031423;28;20145;-78
2023/05/27 07:51:01;;;;;;;5.20;2.15;;;14.70;99.90;;;;;;5025006;28;20057;-78
2023/05/27 07:53:28;;;;;;;3.25;1.98;;;14.80;99.90;;;;;;5062126;28;20483;-77
2023/05/27 07:55:55;;;;;;;4.43;2.08;;;14.90;99.90;;;;;;5049911;28;20914;-77
2023/05/27 07:58:21;;;;;;;6.35;2.08;;;14.90;99.90;;;;;;5042323;28;20045;-77
2023/05/27 08:00:49;;;;;;;4.15;2.25;;;15.10;99.90;;;;;;5032122;28;20106;-77
2023/05/27 08:03:17;;;;;;;4.75;2.00;;;15.30;99.90;;;;;;5046893;28;20140;-77
2023/05/27 08:05:44;;;;;;;3.17;1.58;;;15.40;99.90;;;;;;5050785;28;20247;-78
2023/05/27 08:08:10;;;;;;;4.20;1.92;;;15.60;99.90;;;;;;5040874;28;20049;-77
2023/05/27 08:10:38;;;;;;;9.52;3.20;;;15.70;99.90;;;;;;5040985;28;20049;-77
2023/05/27 08:13:05;;;;;;;3.85;2.85;;;15.80;99.90;;;;;;5045375;28;20048;-77
2023/05/27 08:15:32;;;;;;;5.97;2.75;;;15.70;99.90;;;;;;5061492;28;20048;-77
2023/05/27 08:17:59;;;;;;;5.68;2.78;;;15.70;99.90;;;;;;5050563;28;20124;-77
2023/05/27 08:20:26;;;;;;;5.65;2.67;;;15.60;99.90;;;;;;5050428;28;20053;-77
2023/05/27 08:22:53;;;;;;;5.95;2.58;;;15.60;99.90;;;;;;5050045;28;20044;-77
2023/05/27 08:25:20;;;;;;;8.02;3.25;;;15.60;99.90;;;;;;5061456;28;20048;-77
2023/05/27 08:27:49;;;;;;;5.15;2.40;;;15.80;99.90;;;;;;5062555;28;20106;-77
2023/05/27 08:30:16;;;;;;;7.50;3.97;;;16.10;99.90;;;;;;5062714;28;20062;-77
2023/05/27 08:32:43;;;;;;;5.80;3.35;;;16.00;99.90;;;;;;5061570;28;20056;-77
2023/05/27 08:35:10;;;;;;;5.30;3.08;;;15.80;99.90;;;;;;5060686;28;20048;-77
2023/05/27 08:37:38;;;;;;;4.30;2.20;;;15.50;99.90;;;;;;5061174;28;20049;-77
2023/05/27 08:40:09;;;;;;;4.55;2.45;;;15.60;99.90;;;;;;5045494;28;20158;-77
2023/05/27 08:42:36;;;;;;;5.30;2.60;;;15.50;99.90;;;;;;5062000;28;20155;-78
2023/05/27 08:45:03;;;;;;;5.93;2.70;;;15.50;99.90;;;;;;5024294;28;20122;-77
2023/05/27 08:47:30;;;;;;;4.78;2.20;;;15.40;99.90;;;;;;5042296;28;20056;-77
2023/05/27 08:50:00;;;;;;;7.72;3.13;;;15.40;99.90;;;;;;5023193;28;20531;-77
2023/05/27 08:52:27;;;;;;;7.40;3.00;;;15.30;99.90;;;;;;5041535;28;20061;-77
2023/05/27 08:54:55;;;;;;;5.47;2.63;;;15.30;99.90;;;;;;5041493;28;20422;-77
2023/05/27 08:57:26;;;;;;;5.47;2.58;;;15.30;99.90;;;;;;5061834;28;20099;-77
2023/05/27 08:59:53;;;;;;;6.45;3.20;;;15.30;99.90;;;;;;5045428;28;20048;-77
2023/05/27 09:02:21;;;;;;;4.03;2.72;;;15.30;99.90;;;;;;5061902;28;20102;-77
2023/05/27 09:04:48;;;;;;;6.68;4.10;;;15.50;99.90;;;;;;5052569;28;20060;-77
2023/05/27 09:07:15;;;;;;;9.15;6.82;;;15.50;99.90;;;;;;5030562;28;20037;-76
2023/05/27 09:09:42;;;;;;;8.23;6.50;;;15.50;99.90;;;;;;5052775;28;20098;-77
2023/05/27 09:12:09;;;;;;;9.82;6.45;;;15.60;99.90;;;;;;5053230;28;20045;-77
2023/05/27 09:14:39;;;;;;;6.50;5.28;;;15.70;99.90;;;;;;5034132;28;20484;-77
2023/05/27 09:17:07;;;;;;;6.18;4.40;;;15.80;99.90;;;;;;5053947;28;20055;-78
2023/05/27 09:19:34;;;;;;;7.82;5.45;;;15.90;99.90;;;;;;5059505;28;20052;-78
2023/05/27 09:22:01;;;;;;;6.22;4.88;;;16.00;99.90;;;;;;5028428;28;20052;-77
2023/05/27 09:24:28;;;;;;;8.48;5.80;;;16.00;99.90;;;;;;5060424;28;20056;-77
2023/05/27 09:26:55;;;;;;;9.43;6.07;;;15.90;99.90;;;;;;5046045;28;20110;-78
2023/05/27 09:29:28;;;;;;;7.25;6.10;;;15.90;99.90;;;;;;5036730;28;20052;-77
2023/05/27 09:31:57;;;;;;;;;;;16.00;99.90;;;;;;5052643;28;20057;-78
2023/05/27 09:34:29;;;;;;;8.90;6.00;;;16.00;99.90;;;;;;5053559;28;19924;-78
2023/05/27 09:36:57;;;;;;;6.97;5.53;;;16.00;99.90;;;;;;5030527;28;20056;-78
2023/05/27 09:39:24;;;;;;;9.02;6.30;;;16.00;99.90;;;;;;5046810;28;20055;-78
2023/05/27 09:41:55;;;;;;;8.05;5.55;;;16.10;99.90;;;;;;5048238;28;20076;-77
2023/05/27 09:44:29;;;;;;;9.13;6.05;;;16.20;99.90;;;;;;5056518;28;20072;-78
2023/05/27 09:46:58;;;;;;;7.15;5.20;;;16.30;99.90;;;;;;5046960;28;20063;-78
2023/05/27 09:49:27;;;;;;;6.30;5.25;;;16.50;99.90;;;;;;5030935;28;20480;-78
2023/05/27 09:51:54;;;;;;;8.32;5.55;;;16.50;99.90;;;;;;5044854;28;20053;-78
2023/05/27 09:54:21;;;;;;;6.13;5.43;;;16.60;99.90;;;;;;5030191;28;20094;-78
2023/05/27 09:56:49;;;;;;;5.85;4.85;;;16.60;99.90;;;;;;5028369;28;20053;-78
2023/05/27 09:59:16;;;;;;;7.28;5.40;;;16.70;99.90;;;;;;5041977;28;20049;-77
2023/05/27 10:01:44;;;;;;;6.90;5.30;;;16.80;99.90;;;;;;5044898;28;20218;-77
2023/05/27 10:04:12;;;;;;;7.25;4.80;;;16.90;99.90;;;;;;5020896;28;20120;-83
2023/05/27 10:06:39;;;;;;;9.93;4.93;;;16.90;99.90;;;;;;5043699;28;20155;-80
2023/05/27 10:09:06;;;;;;;6.85;4.38;;;16.90;99.90;;;;;;5045045;28;20053;-78
2023/05/27 10:11:36;;;;;;;6.80;4.35;;;17.00;99.90;;;;;;5064299;28;20040;-78
2023/05/27 10:14:03;;;;;;;6.68;3.92;;;17.00;99.90;;;;;;5051561;28;20067;-79
2023/05/27 10:16:30;;;;;;;5.00;3.58;;;17.20;99.90;;;;;;5029629;28;20127;-78
2023/05/27 10:18:57;;;;;;;4.88;3.65;;;17.20;99.90;;;;;;5030738;28;20073;-78
2023/05/27 10:21:27;;;;;;;5.35;3.83;;;17.30;99.90;;;;;;5044128;28;20049;-78
2023/05/27 10:23:58;;;;;;;5.10;3.65;;;17.40;99.90;;;;;;5027750;28;20061;-78
2023/05/27 10:26:40;;;;;;;6.38;4.43;;;17.60;99.90;;;;;;5040168;28;20044;-78
2023/05/27 10:29:09;;;;;;;6.05;4.22;;;17.70;99.90;;;;;;5045203;28;20045;-78
2023/05/27 10:31:37;;;;;;;6.40;3.90;;;17.70;99.90;;;;;;5048922;28;20408;-77
2023/05/27 10:34:05;;;;;;;6.25;4.13;;;17.70;99.90;;;;;;5030437;28;20056;-78
2023/05/27 10:36:32;;;;;;;5.13;3.90;;;17.80;99.90;;;;;;5025173;28;20053;-78
2023/05/27 10:39:03;;;;;;;5.30;3.90;;;18.00;99.90;;;;;;5053960;28;20040;-78
2023/05/27 10:41:59;;;;;;;4.63;3.50;;;18.10;99.90;;;;;;5056641;28;20049;-78
2023/05/27 10:44:36;;;;;;;5.65;4.10;;;18.20;99.90;;;;;;5058745;28;20044;-78
2023/05/27 10:47:04;;;;;;;8.30;3.92;;;18.30;99.90;;;;;;5046381;28;20659;-78
2023/05/27 10:49:36;;;;;;;6.78;4.00;;;18.30;99.90;;;;;;5039514;28;20048;-77
2023/05/27 10:52:12;;;;;;;4.43;3.47;;;18.30;99.90;;;;;;5037932;28;20065;-77
2023/05/27 10:54:40;;;;;;;6.43;3.85;;;18.50;99.90;;;;;;5020498;28;20049;-78
2023/05/27 10:57:07;;;;;;;6.03;3.28;;;18.60;99.90;;;;;;5019698;28;20048;-77
2023/05/27 10:59:50;;;;;;;5.47;3.30;;;18.70;99.60;;;;;;5050154;28;20040;-78
2023/05/27 11:02:17;;;;;;;5.15;3.72;;;18.90;99.90;;;;;;5036018;28;20492;-78
2023/05/27 11:04:44;;;;;;;5.18;2.83;;;18.90;99.70;;;;;;5029447;28;20067;-78
2023/05/27 11:07:11;;;;;;;4.20;2.67;;;19.10;99.40;;;;;;5037675;28;20037;-78
2023/05/27 11:09:48;;;;;;;3.95;3.00;;;19.20;99.20;;;;;;5050448;28;20118;-78
2023/05/27 11:12:18;;;;;;;5.05;2.70;;;19.30;98.70;;;;;;5039588;28;20163;-78
2023/05/27 11:14:55;;;;;;;4.00;2.95;;;19.30;98.80;;;;;;5032217;28;20136;-77
2023/05/27 11:17:22;;;;;;;4.10;2.70;;;19.40;99.20;;;;;;5021940;28;20041;-78
2023/05/27 11:19:52;;;;;;;4.63;3.00;;;19.60;98.90;;;;;;5023412;28;20051;-78
2023/05/27 11:22:19;;;;;;;4.28;2.97;;;19.80;99.00;;;;;;5024058;28;20099;-81
2023/05/27 11:24:59;;;;;;;3.72;2.53;;;19.90;99.20;;;;;;5031524;28;20052;-77
2023/05/27 11:27:33;;;;;;;3.40;2.10;;;20.20;98.20;;;;;;5051431;28;20061;-78
2023/05/27 11:30:03;;;;;;;4.47;2.75;;;20.40;97.80;;;;;;5031710;28;20103;-78
2023/05/27 11:32:35;;;;;;;3.50;2.28;;;20.40;97.40;;;;;;5049495;28;20048;-78
2023/05/27 11:35:02;;;;;;;5.30;2.50;;;20.60;97.00;;;;;;5041488;28;20048;-78
2023/05/27 11:37:33;;;;;;;3.53;1.88;;;20.60;96.70;;;;;;5045909;28;20044;-78
2023/05/27 11:40:00;;;;;;;3.50;2.40;;;20.80;97.50;;;;;;5017045;28;20053;-78
2023/05/27 11:42:28;;;;;;;3.15;2.20;;;21.10;96.70;;;;;;5027881;28;20066;-78
2023/05/27 11:44:56;;;;;;;3.78;2.17;;;21.30;96.30;;;;;;5019067;28;20099;-78
2023/05/27 11:47:24;;;;;;;5.20;2.88;;;21.10;96.00;;;;;;5025883;28;20045;-78
2023/05/27 11:49:51;;;;;;;4.03;2.17;;;21.30;96.00;;;;;;5050490;28;20045;-78
2023/05/27 11:52:18;;;;;;;3.33;2.17;;;21.40;96.10;;;;;;5012331;28;20072;-78
2023/05/27 11:54:49;;;;;;;3.90;2.20;;;21.50;95.50;;;;;;5022956;28;20056;-78
2023/05/27 11:57:24;;;;;;;3.20;1.77;;;21.50;95.90;;;;;;5041044;28;20049;-78
2023/05/27 11:59:51;;;;;;;4.00;2.53;;;21.70;95.30;;;;;;5041981;28;20122;-77
2023/05/27 12:02:20;;;;;;;4.40;2.45;;;21.90;95.90;;;;;;5044763;28;20053;-77
2023/05/27 12:04:48;;;;;;;4.72;2.33;;;22.00;94.10;;;;;;5051581;28;20059;-78
2023/05/27 12:07:15;;;;;;;2.65;1.65;;;22.30;93.60;;;;;;5046250;28;20048;-78
2023/05/27 12:09:48;;;;;;;3.92;2.65;;;22.80;94.20;;;;;;5030385;28;20045;-79
2023/05/27 12:12:15;;;;;;;6.35;2.65;;;23.10;93.60;;;;;;5041590;28;20524;-78
2023/05/27 12:14:42;;;;;;;3.38;2.45;;;22.90;94.10;;;;;;5046637;28;20123;-78
2023/05/27 12:17:09;;;;;;;3.97;2.78;;;23.20;93.90;;;;;;5045634;28;20045;-78
2023/05/27 12:19:36;;;;;;;4.15;2.50;;;23.10;93.60;;;;;;5026150;28;20049;-78
2023/05/27 12:22:03;;;;;;;6.55;3.00;;;23.40;93.10;;;;;;5036772;28;20132;-78
2023/05/27 12:24:30;;;;;;;3.58;2.20;;;23.20;92.80;;;;;;5039046;28;20163;-79
2023/05/27 12:26:57;;;;;;;3.80;1.90;;;23.50;92.60;;;;;;5047883;28;20391;-79
2023/05/27 12:29:26;;;;;;;4.75;2.78;;;23.60;92.20;;;;;;5059110;28;20048;-79
2023/05/27 12:31:52;;;;;;;3.55;2.03;;;23.50;91.90;;;;;;5051763;28;20053;-79
2023/05/27 12:34:19;;;;;;;2.80;2.00;;;23.70;91.90;;;;;;5049843;28;20076;-79
2023/05/27 12:36:47;;;;;;;4.95;2.30;;;24.20;91.80;;;;;;5051267;28;20671;-89
2023/05/27 12:39:14;;;;;;;3.83;2.25;;;24.30;91.40;;;;;;5044200;28;20041;-81
2023/05/27 12:41:41;;;;;;;3.75;2.03;;;24.30;91.60;;;;;;5027223;28;20055;-80
2023/05/27 12:44:08;;;;;;;4.28;2.40;;;24.50;91.80;;;;;;5058818;28;20056;-80
2023/05/27 12:46:35;;;;;;;5.63;2.78;;;24.70;91.20;;;;;;5024740;28;20074;-80
2023/05/27 12:49:02;;;;;;;4.07;2.65;;;24.60;90.40;;;;;;5022881;28;20087;-80
2023/05/27 12:51:30;;;;;;;4.43;2.45;;;24.60;90.60;;;;;;5016873;28;20048;-80
2023/05/27 12:53:57;;;;;;;3.40;2.08;;;24.80;90.40;;;;;;5028646;28;20051;-80